Accueil
METAR-TAF:

METAR-TAF

Aéroports :

Cape Lisburne, Alaska, États-Unis

latitude: 68-53N, longitude: 166-06W, altitude: 4 m

Observation

Le bulletin a été fait il y a 27 minutes, à 22:11 UTC
Vent 6 kt de nord
Température -17°C
Humidité 84%
Pression 1009 hPa
Visibilité: 16.1 km
Ciel couvert à une hauteur de 1200 ft
faibles averses de neige

METAR: PALU 222211Z AUTO 36006KT 10SM -SHSN OVC012 M17/M19 A2979 RMK AO2 SLP087

Heure: 13:38 (22:38 UTC)


TAF: absent

Observations et prévisions météorologiques de plus de 4000 aéroports (messages METAR et TAF).

Les stations disponibles sont représentées par des disques jaunes et rouges sur la carte.

Passer la souris dessus pour voir le nom de la station.

Cliquer dessus pour voir les observations et prévisions météorologiques.

Pour changer de carte: cliquez sur les boutons verts avec une croix noire pour zoomer, sur le bouton vert avec un tiret pour effectuer un zoom arrière, ou sur les flèches vertes pour les cartes adjacentes.


METAR-TAF: